Time;durP1;ratioP1;P1;durP2;ratioP2;P2;SDS_P1;SDS_P2;PMS_P1;PMS_P2;Temp;Humidity;BMP_temperature;BMP_pressure;BME280_temperature;BME280_humidity;BME280_pressure;Samples;Min_cycle;Max_cycle;Signal;HPM_P1;HPM_P2
2022/01/06 00:00:46;;;;;;;0.68;0.68;;;3.20;99.90;;;;;;5117232;27;20038;-86
2022/01/06 00:03:11;;;;;;;0.10;0.10;;;3.10;99.90;;;;;;5135587;27;20432;-83
2022/01/06 00:05:37;;;;;;;2.42;0.47;;;2.90;99.90;;;;;;5117028;27;20572;-78
2022/01/06 00:08:03;;;;;;;0.47;0.47;;;2.90;99.90;;;;;;5116713;27;20121;-85
2022/01/06 00:10:31;;;;;;;0.20;0.20;;;2.90;99.90;;;;;;5135337;27;20058;-85
2022/01/06 00:26:09;;;;;;;1.65;1.00;;;2.80;99.90;;;;;;5071822;28;20048;-87
2022/01/06 00:28:36;;;;;;;0.30;0.30;;;2.80;99.90;;;;;;5071807;28;20056;-86
2022/01/06 00:31:03;;;;;;;0.20;0.20;;;2.80;99.90;;;;;;5054898;28;20123;-86
2022/01/06 00:33:30;;;;;;;0.30;0.30;;;2.80;99.90;;;;;;5055091;28;20067;-81
2022/01/06 00:35:56;;;;;;;1.10;1.10;;;2.70;99.90;;;;;;5054859;28;20084;-86
2022/01/06 00:38:24;;;;;;;0.20;0.20;;;2.80;99.90;;;;;;5054819;28;20087;-86
2022/01/06 00:40:50;;;;;;;0.25;0.25;;;2.80;99.90;;;;;;5071796;28;20119;-85
2022/01/06 00:43:15;;;;;;;0.75;0.75;;;2.90;99.90;;;;;;5055081;28;20048;-86
2022/01/06 00:45:41;;;;;;;5.47;1.50;;;2.90;99.90;;;;;;5080494;28;20129;-86
2022/01/06 00:48:09;;;;;;;0.43;0.43;;;3.00;99.90;;;;;;5075068;28;20500;-87
2022/01/06 00:50:35;;;;;;;0.90;0.90;;;3.00;99.90;;;;;;5074582;28;20044;-86
2022/01/06 00:53:04;;;;;;;0.13;0.13;;;3.00;99.90;;;;;;5074488;28;20070;-86
2022/01/06 00:55:32;;;;;;;1.85;1.85;;;3.00;99.90;;;;;;5091355;28;20044;-79
2022/01/06 00:57:57;;;;;;;1.85;0.38;;;3.00;99.90;;;;;;5091380;28;20085;-83
2022/01/06 01:00:27;;;;;;;0.20;0.20;;;3.00;99.90;;;;;;5126490;27;20047;-87
2022/01/06 01:02:53;;;;;;;0.20;0.20;;;3.00;99.90;;;;;;5154886;27;20472;-83
2022/01/06 01:05:18;;;;;;;0.20;0.20;;;3.00;99.90;;;;;;5126489;27;20131;-82
2022/01/06 01:07:44;;;;;;;0.63;0.63;;;3.00;99.90;;;;;;5133387;27;20046;-84
2022/01/06 01:10:10;;;;;;;0.10;0.10;;;3.00;99.90;;;;;;5115713;27;20042;-86
2022/01/06 01:12:35;;;;;;;0.57;0.57;;;3.00;99.90;;;;;;5115660;27;20046;-86
2022/01/06 01:15:06;;;;;;;0.15;0.15;;;2.90;99.90;;;;;;5133935;27;20035;-85
2022/01/06 01:17:33;;;;;;;0.13;0.13;;;2.90;99.90;;;;;;5120794;27;20074;-79
2022/01/06 01:20:00;;;;;;;0.20;0.20;;;2.80;99.90;;;;;;5135065;27;20099;-79
2022/01/06 01:22:25;;;;;;;0.20;0.20;;;2.80;99.90;;;;;;5142748;27;20085;-85
2022/01/06 01:24:51;;;;;;;0.20;0.20;;;2.80;99.90;;;;;;5115737;28;20046;-83
2022/01/06 01:27:21;;;;;;;0.20;0.20;;;2.70;99.90;;;;;;5134207;28;20050;-81
2022/01/06 01:30:11;;;;;;;0.20;0.20;;;2.70;99.90;;;;;;5133867;28;20053;-83
2022/01/06 01:32:38;;;;;;;0.20;0.20;;;2.70;99.90;;;;;;5098606;28;20046;-81
2022/01/06 01:35:07;;;;;;;0.38;0.38;;;2.70;99.90;;;;;;5133923;28;20075;-85
2022/01/06 01:37:33;;;;;;;0.10;0.10;;;2.60;99.90;;;;;;5115857;28;20054;-83
2022/01/06 01:39:59;;;;;;;0.22;0.22;;;2.60;99.90;;;;;;5134366;28;20085;-86
2022/01/06 01:42:26;;;;;;;10.73;0.57;;;2.60;99.90;;;;;;5115817;28;20413;-85
2022/01/06 01:44:52;;;;;;;2.15;0.68;;;2.60;99.90;;;;;;5133391;28;20046;-86
2022/01/06 01:47:44;;;;;;;0.50;0.50;;;2.60;99.90;;;;;;5133713;28;20158;-85
2022/01/06 01:50:15;;;;;;;0.22;0.22;;;2.60;99.90;;;;;;5133914;28;20065;-85
2022/01/06 01:52:50;;;;;;;1.67;1.58;;;2.60;99.90;;;;;;5115549;28;20051;-86
2022/01/06 01:55:19;;;;;;;0.22;0.22;;;2.50;99.90;;;;;;5133873;28;20584;-87
2022/01/06 01:57:46;;;;;;;0.20;0.20;;;2.60;99.90;;;;;;5133992;27;20101;-85
2022/01/06 02:00:13;;;;;;;0.52;0.52;;;2.50;99.90;;;;;;5133854;28;20395;-87
2022/01/06 02:02:40;;;;;;;0.20;0.20;;;2.50;99.90;;;;;;5133446;28;20047;-86
2022/01/06 02:05:07;;;;;;;0.40;0.40;;;2.50;99.90;;;;;;5133497;28;20055;-84
2022/01/06 02:07:34;;;;;;;0.65;0.65;;;2.40;99.90;;;;;;5133939;28;20047;-85
2022/01/06 02:10:00;;;;;;;0.20;0.20;;;2.40;99.90;;;;;;5136697;28;20039;-78
2022/01/06 02:12:29;;;;;;;0.95;0.95;;;2.40;99.90;;;;;;5134313;28;20031;-84
2022/01/06 02:14:55;;;;;;;0.20;0.20;;;2.30;99.90;;;;;;5153661;28;20020;-76
2022/01/06 02:17:21;;;;;;;0.35;0.35;;;2.20;99.90;;;;;;5128978;28;20043;-78
2022/01/06 02:20:14;;;;;;;3.92;2.70;;;2.10;99.90;;;;;;5136061;27;20075;-85
2022/01/06 02:22:40;;;;;;;0.17;0.17;;;2.00;99.90;;;;;;5114993;27;20487;-86
2022/01/06 02:25:15;;;;;;;0.20;0.20;;;2.00;99.90;;;;;;5118708;27;20054;-86
2022/01/06 02:27:42;;;;;;;0.30;0.30;;;1.90;99.90;;;;;;5118996;27;20039;-85
2022/01/06 02:30:09;;;;;;;0.20;0.20;;;1.90;99.90;;;;;;5137098;27;20047;-85
2022/01/06 02:32:36;;;;;;;0.10;0.10;;;1.90;99.90;;;;;;5137106;27;20039;-82
2022/01/06 02:35:10;;;;;;;0.20;0.20;;;1.90;99.90;;;;;;5118623;27;20148;-84
2022/01/06 02:37:36;;;;;;;17.73;3.55;;;1.90;99.90;;;;;;5136909;27;20066;-84
2022/01/06 02:40:06;;;;;;;0.25;0.25;;;1.80;99.90;;;;;;5136535;27;20062;-84
2022/01/06 02:42:32;;;;;;;0.20;0.20;;;1.90;99.90;;;;;;5118500;27;20042;-84
2022/01/06 02:44:58;;;;;;;0.43;0.43;;;1.90;99.90;;;;;;5136476;27;20399;-84
2022/01/06 02:47:24;;;;;;;2.30;0.30;;;1.90;99.90;;;;;;5136994;27;20046;-85
2022/01/06 02:49:49;;;;;;;6.82;0.75;;;1.90;99.90;;;;;;5118563;27;20054;-86
2022/01/06 02:52:15;;;;;;;0.40;0.40;;;1.90;99.90;;;;;;5136764;27;20057;-86
2022/01/06 02:54:41;;;;;;;0.20;0.20;;;1.90;99.90;;;;;;5136974;27;20123;-86
2022/01/06 02:57:06;;;;;;;0.25;0.25;;;1.90;99.90;;;;;;5136857;27;20395;-86
2022/01/06 02:59:32;;;;;;;0.30;0.30;;;1.90;99.90;;;;;;5118221;27;20491;-86
2022/01/06 03:01:57;;;;;;;0.30;0.30;;;1.90;99.90;;;;;;5118908;27;20399;-84
2022/01/06 03:04:23;;;;;;;0.30;0.30;;;1.90;99.90;;;;;;5117746;27;20066;-86
2022/01/06 03:06:49;;;;;;;0.20;0.20;;;1.90;99.90;;;;;;5137012;27;20071;-85
2022/01/06 03:09:24;;;;;;;0.20;0.20;;;1.90;99.90;;;;;;5135765;27;20065;-75
2022/01/06 03:11:51;;;;;;;0.20;0.20;;;1.90;99.90;;;;;;5156937;27;20027;-76
2022/01/06 03:14:17;;;;;;;0.20;0.20;;;1.80;99.90;;;;;;5137293;27;20039;-85
2022/01/06 03:16:42;;;;;;;1.00;1.00;;;1.80;99.90;;;;;;5117643;27;20043;-83
2022/01/06 03:19:08;;;;;;;0.30;0.30;;;1.80;99.90;;;;;;5136220;27;20039;-83
2022/01/06 03:21:34;;;;;;;5.05;0.93;;;1.90;99.90;;;;;;5136064;27;20039;-83
2022/01/06 03:23:59;;;;;;;0.25;0.25;;;1.90;99.90;;;;;;5136060;27;20091;-84
2022/01/06 03:26:25;;;;;;;0.40;0.40;;;1.90;99.90;;;;;;5136123;27;20387;-84
2022/01/06 03:28:51;;;;;;;0.75;0.75;;;1.80;99.90;;;;;;5117147;27;20495;-84
2022/01/06 03:31:16;;;;;;;0.30;0.30;;;1.80;99.90;;;;;;5116682;27;20105;-84
2022/01/06 03:33:42;;;;;;;2.20;0.60;;;1.70;99.90;;;;;;5135839;27;20043;-84
2022/01/06 03:36:07;;;;;;;0.30;0.30;;;1.70;99.90;;;;;;5116977;27;20407;-84
2022/01/06 03:38:33;;;;;;;0.20;0.20;;;1.60;99.90;;;;;;5135701;27;20043;-84
2022/01/06 03:40:59;;;;;;;0.30;0.30;;;1.60;99.90;;;;;;5135851;27;20395;-84
2022/01/06 03:43:25;;;;;;;0.20;0.20;;;1.50;99.90;;;;;;5135792;27;20035;-85
2022/01/06 03:45:51;;;;;;;0.30;0.30;;;1.40;99.90;;;;;;5116874;27;20494;-84
2022/01/06 03:48:16;;;;;;;0.20;0.20;;;1.30;99.90;;;;;;5135352;27;20047;-84
2022/01/06 03:50:42;;;;;;;0.20;0.20;;;1.30;99.90;;;;;;5135655;27;20591;-84
2022/01/06 03:53:08;;;;;;;0.20;0.20;;;1.20;99.90;;;;;;5116992;27;20495;-84
2022/01/06 03:55:34;;;;;;;0.30;0.30;;;1.10;99.90;;;;;;5116869;27;20051;-84
2022/01/06 03:58:00;;;;;;;4.95;0.70;;;1.00;99.90;;;;;;5135433;27;20468;-84
2022/01/06 04:00:25;;;;;;;0.20;0.20;;;1.00;99.90;;;;;;5134978;27;20047;-84
2022/01/06 04:02:51;;;;;;;0.20;0.20;;;0.90;99.90;;;;;;5135432;27;20092;-82
2022/01/06 04:05:17;;;;;;;0.30;0.30;;;0.80;99.90;;;;;;5134954;27;20211;-84
2022/01/06 04:07:43;;;;;;;1.20;1.10;;;0.80;99.90;;;;;;5116895;27;20051;-84
2022/01/06 04:10:10;;;;;;;0.20;0.20;;;0.80;99.90;;;;;;5116716;27;20406;-83
2022/01/06 04:12:37;;;;;;;0.30;0.30;;;0.70;99.90;;;;;;5134987;27;20042;-80
2022/01/06 04:15:08;;;;;;;17.88;0.93;;;0.60;99.90;;;;;;5134904;27;20051;-83
2022/01/06 04:17:34;;;;;;;0.30;0.30;;;0.60;99.90;;;;;;5135145;27;20031;-84
2022/01/06 04:19:59;;;;;;;0.40;0.40;;;0.60;99.90;;;;;;5135077;27;20039;-84
2022/01/06 04:22:25;;;;;;;0.60;0.60;;;0.60;99.90;;;;;;5134783;27;20118;-84
2022/01/06 04:24:50;;;;;;;3.10;1.48;;;0.60;99.90;;;;;;5116265;27;20118;-84
2022/01/06 04:27:16;;;;;;;0.30;0.30;;;0.60;99.90;;;;;;5134638;27;20046;-85
2022/01/06 04:29:42;;;;;;;0.20;0.20;;;0.60;99.90;;;;;;5134503;27;20047;-79
2022/01/06 04:32:07;;;;;;;0.25;0.25;;;0.50;99.90;;;;;;5134779;27;20043;-76
2022/01/06 04:34:34;;;;;;;0.25;0.25;;;0.50;99.90;;;;;;5116117;27;20082;-84
2022/01/06 04:37:00;;;;;;;0.30;0.30;;;0.60;99.90;;;;;;5134801;27;20122;-86
2022/01/06 04:39:26;;;;;;;0.30;0.30;;;0.60;99.90;;;;;;5134840;27;20555;-79
2022/01/06 04:41:52;;;;;;;0.30;0.30;;;0.70;99.90;;;;;;5134324;27;20078;-82
2022/01/06 04:44:18;;;;;;;0.30;0.30;;;0.60;99.90;;;;;;5134399;27;20053;-84
2022/01/06 04:46:43;;;;;;;0.20;0.20;;;0.60;99.90;;;;;;5115822;27;20055;-84
2022/01/06 04:49:09;;;;;;;0.40;0.40;;;0.60;99.90;;;;;;5115785;27;20047;-76
2022/01/06 04:51:35;;;;;;;0.20;0.20;;;0.60;99.90;;;;;;5116002;27;20081;-83
2022/01/06 04:54:01;;;;;;;0.20;0.20;;;0.60;99.90;;;;;;5116041;27;20050;-85
2022/01/06 04:56:26;;;;;;;0.20;0.20;;;0.60;99.90;;;;;;5116205;27;20046;-81
2022/01/06 04:58:52;;;;;;;0.20;0.20;;;0.50;99.90;;;;;;5141762;27;20086;-80
2022/01/06 05:01:18;;;;;;;1.05;1.05;;;0.50;99.90;;;;;;5136295;27;20043;-78
2022/01/06 05:03:43;;;;;;;0.22;0.22;;;0.50;99.90;;;;;;5142643;27;20055;-80
2022/01/06 05:06:09;;;;;;;0.30;0.30;;;0.40;99.90;;;;;;5115856;27;20055;-84
2022/01/06 05:08:35;;;;;;;0.20;0.20;;;0.40;99.90;;;;;;5134438;27;20396;-84
2022/01/06 05:11:01;;;;;;;0.20;0.20;;;0.40;99.90;;;;;;5116505;27;20498;-84
2022/01/06 05:13:26;;;;;;;0.30;0.30;;;0.40;99.90;;;;;;5134818;27;20039;-83
2022/01/06 05:15:52;;;;;;;1.20;1.20;;;0.40;99.90;;;;;;5134638;27;20047;-84
2022/01/06 05:18:18;;;;;;;14.20;5.65;;;0.40;99.90;;;;;;5134999;27;20051;-85
2022/01/06 05:20:43;;;;;;;6.90;4.40;;;0.40;99.90;;;;;;5115997;28;20051;-84
2022/01/06 05:23:11;;;;;;;2.92;2.05;;;0.50;99.90;;;;;;5115522;28;20530;-85
2022/01/06 05:25:37;;;;;;;0.82;0.55;;;0.50;99.90;;;;;;5115960;28;20051;-85
2022/01/06 05:28:03;;;;;;;0.40;0.40;;;0.60;99.90;;;;;;5115964;28;20054;-85
2022/01/06 05:30:29;;;;;;;0.30;0.30;;;0.60;99.90;;;;;;5134519;28;20047;-84
2022/01/06 05:32:55;;;;;;;0.85;0.85;;;0.60;99.90;;;;;;5134184;28;20035;-85
2022/01/06 05:35:20;;;;;;;0.30;0.30;;;0.70;99.90;;;;;;5134226;28;20047;-85
2022/01/06 05:37:46;;;;;;;1.98;1.85;;;0.70;99.90;;;;;;5134314;28;20047;-84
2022/01/06 05:40:13;;;;;;;3.10;2.45;;;0.80;99.90;;;;;;5134295;28;20088;-85
2022/01/06 05:42:38;;;;;;;7.20;4.40;;;0.80;99.90;;;;;;5134182;28;20122;-85
2022/01/06 05:45:05;;;;;;;10.27;9.45;;;0.90;99.90;;;;;;5134340;28;20133;-86
2022/01/06 05:47:31;;;;;;;5.00;4.13;;;0.90;99.90;;;;;;5134439;28;20519;-85
2022/01/06 05:49:58;;;;;;;0.35;0.35;;;0.90;99.90;;;;;;5134558;28;20126;-86
2022/01/06 05:52:24;;;;;;;12.85;2.08;;;1.00;99.90;;;;;;5134041;28;20039;-85
2022/01/06 05:54:50;;;;;;;2.35;1.77;;;0.90;99.90;;;;;;5140215;27;20045;-85
2022/01/06 05:57:17;;;;;;;1.60;1.50;;;0.90;99.90;;;;;;5134704;27;20136;-82
2022/01/06 05:59:42;;;;;;;3.90;1.95;;;0.90;99.90;;;;;;5124284;27;20505;-86
2022/01/06 06:02:08;;;;;;;0.25;0.25;;;0.90;99.90;;;;;;5120179;27;20134;-81
2022/01/06 06:04:34;;;;;;;0.45;0.45;;;0.80;99.90;;;;;;5137877;27;20045;-85
2022/01/06 06:06:59;;;;;;;3.30;0.40;;;0.80;99.90;;;;;;5119374;27;20072;-80
2022/01/06 06:09:25;;;;;;;8.07;3.70;;;0.80;99.90;;;;;;5119229;27;20153;-84
2022/01/06 06:11:51;;;;;;;4.28;1.55;;;0.90;99.90;;;;;;5119545;27;20043;-86
2022/01/06 06:14:16;;;;;;;0.32;0.32;;;0.90;99.90;;;;;;5137823;27;20395;-86
2022/01/06 06:16:42;;;;;;;4.65;2.40;;;0.90;99.90;;;;;;5119248;27;20043;-85
2022/01/06 06:19:08;;;;;;;14.23;5.63;;;0.90;99.90;;;;;;5119223;27;20120;-86
2022/01/06 06:21:34;;;;;;;3.40;2.38;;;0.90;99.90;;;;;;5119275;27;20043;-86
2022/01/06 06:23:59;;;;;;;14.55;3.67;;;0.90;99.90;;;;;;5119162;27;20487;-82
2022/01/06 06:26:25;;;;;;;3.05;1.27;;;0.90;99.90;;;;;;5119252;27;20126;-84
2022/01/06 06:28:51;;;;;;;5.57;1.05;;;0.90;99.90;;;;;;5137518;27;20046;-86
2022/01/06 06:31:16;;;;;;;0.20;0.20;;;0.90;99.90;;;;;;5137611;27;20074;-85
2022/01/06 06:33:42;;;;;;;0.17;0.17;;;0.90;99.90;;;;;;5137387;27;20049;-86
2022/01/06 06:36:08;;;;;;;2.50;2.40;;;0.90;99.90;;;;;;5137576;27;20039;-86
2022/01/06 06:38:33;;;;;;;1.80;0.82;;;0.90;99.90;;;;;;5137493;27;20488;-84
2022/01/06 06:40:59;;;;;;;0.40;0.40;;;0.90;99.90;;;;;;5119463;27;20039;-86
2022/01/06 06:43:25;;;;;;;0.70;0.70;;;0.90;99.90;;;;;;5118893;27;20035;-83
2022/01/06 06:45:50;;;;;;;0.50;0.50;;;0.90;99.90;;;;;;5119342;27;20368;-85
2022/01/06 06:48:16;;;;;;;0.20;0.20;;;1.00;99.90;;;;;;5137539;27;20039;-84
2022/01/06 06:50:42;;;;;;;0.20;0.20;;;1.00;99.90;;;;;;5150989;27;20046;-84
2022/01/06 06:53:07;;;;;;;0.28;0.28;;;1.00;99.90;;;;;;5122950;27;20043;-84
2022/01/06 06:55:34;;;;;;;1.23;0.73;;;0.90;99.90;;;;;;5118596;27;20054;-80
2022/01/06 06:58:00;;;;;;;0.25;0.25;;;0.90;99.90;;;;;;5118234;27;20083;-82
2022/01/06 07:00:25;;;;;;;0.20;0.20;;;0.90;99.90;;;;;;5118205;27;20043;-84
2022/01/06 07:02:51;;;;;;;0.55;0.55;;;0.80;99.90;;;;;;5118324;27;20046;-83
2022/01/06 07:05:17;;;;;;;1.00;0.32;;;0.80;99.90;;;;;;5116943;28;20403;-84
2022/01/06 07:07:44;;;;;;;0.70;0.70;;;0.70;99.90;;;;;;5117964;27;20055;-85
2022/01/06 07:10:10;;;;;;;0.30;0.30;;;0.50;99.90;;;;;;5136710;27;20039;-81
2022/01/06 07:12:41;;;;;;;9.50;0.40;;;0.40;99.90;;;;;;5118584;27;20138;-84
2022/01/06 07:15:08;;;;;;;0.30;0.30;;;0.40;99.90;;;;;;5136156;27;20506;-85
2022/01/06 07:17:34;;;;;;;0.20;0.20;;;0.30;99.90;;;;;;5136555;27;20122;-84
2022/01/06 07:20:00;;;;;;;0.20;0.20;;;0.20;99.90;;;;;;5118022;27;20131;-84
2022/01/06 07:22:26;;;;;;;0.47;0.47;;;0.10;99.90;;;;;;5136453;27;20036;-85
2022/01/06 07:24:51;;;;;;;1.15;1.15;;;0.10;99.90;;;;;;5136581;27;20395;-82
2022/01/06 07:27:17;;;;;;;0.75;0.75;;;0.00;99.90;;;;;;5118018;27;20051;-86
2022/01/06 07:29:43;;;;;;;0.20;0.20;;;0.00;99.90;;;;;;5117855;27;20047;-82
2022/01/06 07:32:09;;;;;;;0.30;0.30;;;-0.10;99.90;;;;;;5136303;27;20444;-85
2022/01/06 07:34:35;;;;;;;0.25;0.25;;;-0.10;99.90;;;;;;5136127;27;20046;-85
2022/01/06 07:37:01;;;;;;;0.20;0.20;;;-0.10;99.90;;;;;;5136275;27;20039;-84
2022/01/06 07:39:27;;;;;;;0.20;0.20;;;-0.20;99.90;;;;;;5136508;27;20371;-85
2022/01/06 07:41:52;;;;;;;0.68;0.68;;;-0.20;99.90;;;;;;5136179;27;20049;-85
2022/01/06 07:44:18;;;;;;;1.00;0.82;;;-0.30;99.90;;;;;;5136025;27;20417;-86
2022/01/06 07:46:45;;;;;;;0.50;0.50;;;-0.30;99.90;;;;;;5135972;27;20058;-82
2022/01/06 07:49:11;;;;;;;0.65;0.65;;;-0.40;99.90;;;;;;5136005;27;20076;-86
2022/01/06 07:51:37;;;;;;;1.75;1.73;;;-0.40;99.90;;;;;;5135431;27;20116;-85
2022/01/06 07:54:03;;;;;;;3.58;3.28;;;-0.30;99.90;;;;;;5117179;27;20043;-83
2022/01/06 07:56:29;;;;;;;4.55;2.08;;;-0.30;99.90;;;;;;5135852;27;20396;-85
2022/01/06 07:58:55;;;;;;;1.30;1.25;;;-0.30;99.90;;;;;;5135807;27;20097;-86
2022/01/06 08:01:21;;;;;;;0.68;0.68;;;-0.30;99.90;;;;;;5135642;27;20043;-85
2022/01/06 08:03:47;;;;;;;1.95;0.95;;;-0.20;99.90;;;;;;5117053;27;20047;-84
2022/01/06 08:06:14;;;;;;;0.73;0.73;;;-0.20;99.90;;;;;;5116665;27;20054;-82
2022/01/06 08:08:41;;;;;;;4.63;2.67;;;-0.20;99.90;;;;;;5135205;27;20054;-85
2022/01/06 08:11:06;;;;;;;7.45;6.70;;;-0.20;99.90;;;;;;5135560;27;20145;-85
2022/01/06 08:13:32;;;;;;;8.77;8.02;;;-0.20;99.90;;;;;;5117270;27;20122;-84
2022/01/06 08:15:58;;;;;;;6.22;5.10;;;-0.10;99.90;;;;;;5116874;27;20522;-81
2022/01/06 08:18:24;;;;;;;9.15;2.58;;;-0.10;99.90;;;;;;5116787;27;20039;-86
2022/01/06 08:20:49;;;;;;;1.80;1.70;;;-0.10;99.90;;;;;;5135367;27;20050;-84
2022/01/06 08:23:15;;;;;;;1.85;1.52;;;-0.10;99.90;;;;;;5116418;27;20039;-86
2022/01/06 08:25:41;;;;;;;1.85;1.70;;;-0.10;99.90;;;;;;5116917;27;20043;-87
2022/01/06 08:28:07;;;;;;;0.77;0.68;;;-0.10;99.90;;;;;;5116797;27;20507;-86
2022/01/06 08:30:34;;;;;;;0.85;0.85;;;-0.10;99.90;;;;;;5135316;27;20039;-86
2022/01/06 08:33:00;;;;;;;0.68;0.68;;;-0.10;99.90;;;;;;5135004;27;20130;-87
2022/01/06 08:35:26;;;;;;;5.50;3.47;;;0.00;99.90;;;;;;5135081;27;20079;-87
2022/01/06 08:37:52;;;;;;;1.17;1.17;;;0.00;99.90;;;;;;5116236;27;20131;-87
2022/01/06 08:40:17;;;;;;;3.55;3.20;;;0.00;99.90;;;;;;5134912;27;20142;-87
2022/01/06 08:42:46;;;;;;;2.08;1.95;;;0.10;99.90;;;;;;5134811;27;20043;-87
2022/01/06 08:45:13;;;;;;;1.00;0.95;;;0.10;99.90;;;;;;5116366;27;20085;-86
2022/01/06 08:47:39;;;;;;;4.28;1.80;;;0.10;99.90;;;;;;5134825;27;20035;-86
2022/01/06 08:50:06;;;;;;;0.52;0.50;;;0.20;99.90;;;;;;5134733;27;20039;-86
2022/01/06 08:52:34;;;;;;;0.35;0.35;;;0.20;99.90;;;;;;5116064;27;20041;-81
2022/01/06 08:55:00;;;;;;;0.30;0.30;;;0.20;99.90;;;;;;5134641;27;20039;-83
2022/01/06 08:57:26;;;;;;;0.52;0.52;;;0.30;99.90;;;;;;5134211;27;20035;-84
2022/01/06 08:59:52;;;;;;;0.20;0.20;;;0.30;99.90;;;;;;5134064;27;20060;-84
2022/01/06 09:02:17;;;;;;;0.68;0.68;;;0.30;99.90;;;;;;5134300;27;20043;-86
2022/01/06 09:04:43;;;;;;;0.20;0.20;;;0.30;99.90;;;;;;5134227;27;20042;-86
2022/01/06 09:07:09;;;;;;;0.25;0.25;;;0.30;99.90;;;;;;5134309;27;20051;-87
2022/01/06 09:09:36;;;;;;;0.20;0.20;;;0.30;99.90;;;;;;5116201;27;20071;-84
2022/01/06 09:12:02;;;;;;;0.38;0.38;;;0.30;99.90;;;;;;5134668;27;20046;-79
2022/01/06 09:14:27;;;;;;;0.20;0.20;;;0.30;99.90;;;;;;5115754;27;20408;-86
2022/01/06 09:16:54;;;;;;;0.20;0.20;;;0.40;99.90;;;;;;5134125;27;20047;-86
2022/01/06 09:19:20;;;;;;;0.15;0.15;;;0.40;99.90;;;;;;5115591;28;20096;-86
2022/01/06 09:21:46;;;;;;;0.40;0.40;;;0.50;99.90;;;;;;5115598;27;20054;-87
2022/01/06 09:24:11;;;;;;;0.68;0.68;;;0.50;99.90;;;;;;5133889;27;20421;-87
2022/01/06 09:26:38;;;;;;;0.22;0.22;;;0.60;99.90;;;;;;5134437;27;20089;-87
2022/01/06 09:29:05;;;;;;;1.02;0.98;;;0.60;99.90;;;;;;5133368;27;20053;-87
2022/01/06 09:31:33;;;;;;;0.73;0.73;;;0.70;99.90;;;;;;5134599;28;20471;-87
2022/01/06 09:33:59;;;;;;;0.52;0.52;;;0.80;99.90;;;;;;5115761;28;20440;-86
2022/01/06 09:36:27;;;;;;;0.25;0.25;;;0.80;99.90;;;;;;5106876;28;20027;-85
2022/01/06 09:38:55;;;;;;;0.38;0.38;;;0.80;99.90;;;;;;5153666;28;20504;-81
2022/01/06 09:41:22;;;;;;;0.40;0.40;;;0.90;99.90;;;;;;5138923;28;20047;-85
2022/01/06 09:43:52;;;;;;;1.35;1.35;;;0.90;99.90;;;;;;5134556;28;20094;-85
2022/01/06 09:46:20;;;;;;;0.20;0.20;;;1.00;99.90;;;;;;5116165;28;20137;-84
2022/01/06 09:48:45;;;;;;;0.32;0.32;;;1.10;99.90;;;;;;5134532;28;20035;-85
2022/01/06 09:51:11;;;;;;;0.45;0.45;;;1.10;99.90;;;;;;5098626;28;20368;-82
2022/01/06 09:53:37;;;;;;;1.35;1.35;;;1.20;99.90;;;;;;5115658;28;20107;-87
2022/01/06 09:56:03;;;;;;;0.30;0.30;;;1.20;99.90;;;;;;5117106;28;20035;-86
2022/01/06 09:58:29;;;;;;;0.60;0.60;;;1.30;99.90;;;;;;5134991;28;20043;-86
2022/01/06 10:00:56;;;;;;;0.30;0.30;;;1.40;99.90;;;;;;5116094;28;20122;-86
2022/01/06 10:03:33;;;;;;;0.28;0.28;;;1.50;99.90;;;;;;5134022;28;20527;-84
2022/01/06 10:06:10;;;;;;;0.22;0.22;;;1.60;99.90;;;;;;5134863;27;20062;-86
2022/01/06 10:08:36;;;;;;;0.50;0.50;;;1.60;99.90;;;;;;5135081;28;20131;-86
2022/01/06 10:11:14;;;;;;;1.88;1.77;;;1.80;99.90;;;;;;5116467;28;20054;-83
2022/01/06 10:13:41;;;;;;;0.55;0.55;;;1.90;99.90;;;;;;5134332;28;20491;-85
2022/01/06 10:16:19;;;;;;;0.20;0.20;;;1.90;99.90;;;;;;5134304;28;20127;-82
2022/01/06 10:19:00;;;;;;;0.32;0.32;;;2.00;99.90;;;;;;5134444;28;20058;-85
2022/01/06 10:21:40;;;;;;;0.20;0.20;;;2.00;99.90;;;;;;5115768;28;20051;-86
2022/01/06 10:24:13;;;;;;;1.15;1.05;;;2.00;99.90;;;;;;5134336;28;20047;-86
2022/01/06 10:26:52;;;;;;;2.42;1.13;;;1.90;99.90;;;;;;5135732;28;20035;-87
2022/01/06 10:29:19;;;;;;;5.50;0.95;;;1.90;99.90;;;;;;5135496;28;20051;-80
2022/01/06 10:31:46;;;;;;;1.75;0.90;;;1.90;99.90;;;;;;5128451;28;20035;-86
2022/01/06 10:34:11;;;;;;;4.65;1.05;;;1.90;99.90;;;;;;5130460;28;20049;-78
2022/01/06 10:36:39;;;;;;;1.17;0.68;;;1.90;99.90;;;;;;5119065;28;20122;-87
2022/01/06 10:39:08;;;;;;;0.70;0.70;;;2.00;99.90;;;;;;5115726;28;20070;-87
2022/01/06 10:41:37;;;;;;;0.50;0.50;;;2.10;99.90;;;;;;5118928;27;20546;-87
2022/01/06 10:44:05;;;;;;;1.05;1.05;;;2.10;99.90;;;;;;5137538;27;20043;-86
2022/01/06 10:46:37;;;;;;;0.40;0.40;;;2.20;99.90;;;;;;5138073;27;20036;-91
2022/01/06 10:49:06;;;;;;;0.55;0.55;;;2.20;99.90;;;;;;5137485;27;20104;-88
2022/01/06 10:51:34;;;;;;;0.20;0.20;;;2.20;99.90;;;;;;5138025;27;20039;-76
2022/01/06 10:53:59;;;;;;;2.17;1.17;;;2.30;99.90;;;;;;5137321;27;20039;-84
2022/01/06 10:56:27;;;;;;;0.50;0.50;;;2.30;99.90;;;;;;5118967;27;20045;-85
2022/01/06 10:58:57;;;;;;;0.20;0.20;;;2.40;99.90;;;;;;5118609;27;20039;-83
2022/01/06 11:01:22;;;;;;;0.20;0.20;;;2.50;99.90;;;;;;5115265;27;20039;-80
2022/01/06 11:03:48;;;;;;;0.50;0.50;;;2.40;99.90;;;;;;5136255;27;20134;-82
2022/01/06 11:06:14;;;;;;;2.65;2.50;;;2.50;99.90;;;;;;5117821;27;20100;-83
2022/01/06 11:08:41;;;;;;;0.45;0.45;;;2.50;99.90;;;;;;5136024;27;20047;-90
2022/01/06 11:13:38;;;;;;;1.27;1.27;;;2.50;99.90;;;;;;5117964;27;20096;-90
2022/01/06 11:16:06;;;;;;;2.10;1.15;;;2.50;99.90;;;;;;5119416;27;20082;-84
2022/01/06 11:18:32;;;;;;;19.55;1.10;;;2.50;99.90;;;;;;5117997;27;20071;-83
2022/01/06 11:21:09;;;;;;;0.35;0.35;;;2.60;99.90;;;;;;5136364;27;20086;-82
2022/01/06 11:23:36;;;;;;;0.20;0.20;;;2.60;99.90;;;;;;5135760;27;20117;-83
2022/01/06 11:26:06;;;;;;;0.32;0.32;;;2.70;99.90;;;;;;5136430;27;20031;-84
2022/01/06 11:28:33;;;;;;;0.20;0.20;;;2.80;99.90;;;;;;5135915;27;20035;-85
2022/01/06 11:31:19;;;;;;;0.95;0.95;;;2.80;99.90;;;;;;5123737;27;20035;-81
2022/01/06 11:33:47;;;;;;;0.20;0.20;;;2.80;99.90;;;;;;5096898;28;20075;-83
2022/01/06 11:40:50;;;;;;;0.20;0.20;;;2.90;99.90;;;;;;5115237;28;20046;-83
2022/01/06 11:43:17;;;;;;;0.47;0.47;;;3.00;99.90;;;;;;5096640;28;20092;-84
2022/01/06 11:45:43;;;;;;;5.93;5.47;;;3.10;99.90;;;;;;5115425;28;20057;-87
2022/01/06 11:48:16;;;;;;;0.47;0.47;;;3.20;99.90;;;;;;5115372;28;20130;-84
2022/01/06 11:50:44;;;;;;;2.17;2.08;;;3.30;99.90;;;;;;5114971;28;20087;-82
2022/01/06 11:53:11;;;;;;;3.67;3.33;;;3.40;99.90;;;;;;5079018;28;20415;-86
2022/01/06 11:55:39;;;;;;;1.08;0.47;;;3.40;99.90;;;;;;5096149;28;20048;-88
2022/01/06 11:58:22;;;;;;;30.58;2.03;;;3.50;99.90;;;;;;5096424;28;20090;-79
2022/01/06 12:01:07;;;;;;;2.25;2.15;;;3.60;99.90;;;;;;5135261;27;20202;-78
2022/01/06 12:03:40;;;;;;;0.40;0.40;;;3.60;99.90;;;;;;5155660;27;20107;-78
2022/01/06 12:06:08;;;;;;;0.13;0.13;;;3.70;99.90;;;;;;5155802;27;20082;-80
2022/01/06 12:08:40;;;;;;;1.85;1.77;;;3.80;99.90;;;;;;5155857;27;20043;-78
2022/01/06 12:11:25;;;;;;;0.20;0.20;;;3.90;99.90;;;;;;5156021;27;20046;-80
2022/01/06 12:13:53;;;;;;;2.85;1.63;;;4.00;99.90;;;;;;5137781;27;20047;-92
2022/01/06 12:16:29;;;;;;;6.03;0.50;;;4.00;99.90;;;;;;5156779;27;20122;-83
2022/01/06 12:18:55;;;;;;;0.20;0.20;;;4.10;99.90;;;;;;5158020;27;20046;-84
2022/01/06 12:21:22;;;;;;;0.30;0.30;;;4.20;99.90;;;;;;5139994;27;20091;-90
2022/01/06 12:24:08;;;;;;;0.22;0.22;;;4.30;99.90;;;;;;5156453;27;20050;-82
2022/01/06 12:26:34;;;;;;;7.93;1.70;;;4.30;99.90;;;;;;5156019;27;20041;-81
2022/01/06 12:29:01;;;;;;;0.50;0.50;;;4.50;99.90;;;;;;5155644;27;20428;-83
2022/01/06 12:31:29;;;;;;;1.05;1.05;;;4.50;99.90;;;;;;5118489;27;20040;-80
2022/01/06 12:34:00;;;;;;;1.05;1.05;;;4.50;99.90;;;;;;5095680;28;20113;-81
2022/01/06 12:36:29;;;;;;;0.32;0.32;;;4.50;99.90;;;;;;5114548;28;20130;-82
2022/01/06 12:38:56;;;;;;;0.13;0.13;;;4.60;99.90;;;;;;5095910;28;20127;-87
2022/01/06 12:41:28;;;;;;;1.02;1.02;;;4.70;99.90;;;;;;5114234;28;20055;-83
2022/01/06 12:43:56;;;;;;;0.20;0.20;;;4.70;99.90;;;;;;5106690;27;20047;-84
2022/01/06 12:46:28;;;;;;;0.20;0.20;;;4.70;99.90;;;;;;5116668;27;20047;-84
2022/01/06 12:48:54;;;;;;;0.50;0.50;;;4.80;99.90;;;;;;5116471;27;20043;-91
2022/01/06 12:51:28;;;;;;;0.57;0.57;;;4.80;99.90;;;;;;5117099;27;20058;-88
2022/01/06 12:54:13;;;;;;;0.20;0.20;;;4.80;99.90;;;;;;5099726;27;20035;-88
2022/01/06 12:56:41;;;;;;;11.50;1.75;;;4.90;99.90;;;;;;5134957;27;20109;-79
2022/01/06 12:59:23;;;;;;;0.30;0.30;;;4.90;99.90;;;;;;5134158;27;20495;-83
2022/01/06 13:01:54;;;;;;;0.20;0.20;;;4.90;99.90;;;;;;5115720;27;20047;-88
2022/01/06 13:04:27;;;;;;;0.20;0.20;;;5.00;99.90;;;;;;5113033;28;20122;-86
2022/01/06 13:07:02;;;;;;;0.10;0.10;;;5.00;99.90;;;;;;5114148;28;20109;-88
2022/01/06 13:09:33;;;;;;;0.43;0.43;;;5.00;99.90;;;;;;5096543;28;20057;-89
2022/01/06 13:12:04;;;;;;;0.30;0.30;;;5.10;99.90;;;;;;5115861;28;20488;-88
2022/01/06 13:14:41;;;;;;;0.20;0.20;;;5.10;99.90;;;;;;5116184;28;20047;-87
2022/01/06 13:17:17;;;;;;;1.00;1.00;;;5.10;99.90;;;;;;5097457;28;20047;-89